Time;durP1;ratioP1;P1;durP2;ratioP2;P2;SDS_P1;SDS_P2;PMS_P1;PMS_P2;Temp;Humidity;BMP_temperature;BMP_pressure;BME280_temperature;BME280_humidity;BME280_pressure;Samples;Min_cycle;Max_cycle;Signal;HPM_P1;HPM_P2
2021/12/23 00:00:38;;;;;;;0.75;0.75;;;-2.80;99.90;;;;;;5056069;28;20044;-68
2021/12/23 00:03:05;;;;;;;0.70;0.70;;;-2.80;99.90;;;;;;5056312;28;20441;-68
2021/12/23 00:05:31;;;;;;;3.03;2.83;;;-2.90;99.90;;;;;;5074220;28;20086;-68
2021/12/23 00:07:57;;;;;;;0.95;0.95;;;-3.00;99.90;;;;;;5074094;28;20033;-68
2021/12/23 00:10:22;;;;;;;0.77;0.77;;;-2.90;99.90;;;;;;5072627;28;20044;-68
2021/12/23 00:12:48;;;;;;;0.40;0.40;;;-2.90;99.90;;;;;;5072913;28;20123;-68
2021/12/23 00:15:38;;;;;;;1.00;1.00;;;-2.90;99.90;;;;;;5072671;28;20528;-68
2021/12/23 00:23:57;;;;;;;0.20;0.20;;;-2.90;99.90;;;;;;5072790;28;20040;-67
2021/12/23 00:26:23;;;;;;;0.30;0.30;;;-2.90;99.90;;;;;;5072259;28;20035;-68
2021/12/23 00:28:49;;;;;;;0.75;0.75;;;-3.00;99.90;;;;;;5073581;28;20051;-68
2021/12/23 00:31:16;;;;;;;2.03;1.85;;;-3.10;99.90;;;;;;5074062;28;20033;-67
2021/12/23 00:33:42;;;;;;;1.35;1.27;;;-3.10;99.90;;;;;;5073694;28;20033;-67
2021/12/23 00:36:10;;;;;;;0.82;0.82;;;-3.20;99.90;;;;;;5072611;28;20036;-67
2021/12/23 00:38:43;;;;;;;1.30;1.23;;;-3.30;99.90;;;;;;5073579;28;20401;-67
2021/12/23 00:41:09;;;;;;;1.00;1.00;;;-3.30;99.90;;;;;;5072104;28;20063;-67
2021/12/23 00:43:36;;;;;;;0.20;0.20;;;-3.30;99.90;;;;;;5072158;28;20079;-67
2021/12/23 00:46:06;;;;;;;0.17;0.17;;;-3.30;99.90;;;;;;5072122;28;20080;-68
2021/12/23 00:48:35;;;;;;;0.20;0.20;;;-3.30;99.90;;;;;;5072047;28;20040;-67
2021/12/23 00:51:03;;;;;;;0.63;0.50;;;-3.40;99.90;;;;;;5055538;28;20021;-68
2021/12/23 00:53:35;;;;;;;0.82;0.77;;;-3.30;99.90;;;;;;5071740;28;20115;-68
2021/12/23 00:56:01;;;;;;;0.20;0.20;;;-3.40;99.90;;;;;;5073436;28;20024;-68
2021/12/23 00:58:27;;;;;;;0.47;0.47;;;-3.30;99.90;;;;;;5073201;28;20107;-69
2021/12/23 01:00:54;;;;;;;1.25;1.25;;;-3.20;99.90;;;;;;5071831;28;20049;-68
2021/12/23 01:03:20;;;;;;;0.38;0.38;;;-3.10;99.90;;;;;;5088764;28;20580;-68
2021/12/23 01:05:46;;;;;;;0.77;0.73;;;-3.10;99.90;;;;;;5073021;28;20028;-68
2021/12/23 01:08:12;;;;;;;1.38;1.33;;;-3.10;99.90;;;;;;5073094;28;20032;-68
2021/12/23 01:10:38;;;;;;;1.35;1.30;;;-3.00;99.90;;;;;;5072731;28;20545;-68
2021/12/23 01:13:06;;;;;;;1.50;1.30;;;-3.00;99.90;;;;;;5072693;28;20081;-68
2021/12/23 01:18:19;;;;;;;0.25;0.25;;;-2.90;99.90;;;;;;5072586;28;20533;-68
2021/12/23 01:21:02;;;;;;;1.75;1.65;;;-2.90;99.90;;;;;;5071215;28;20043;-68
2021/12/23 01:23:29;;;;;;;0.20;0.20;;;-2.90;99.90;;;;;;5071391;28;20044;-68
2021/12/23 01:25:55;;;;;;;1.10;1.10;;;-2.90;99.90;;;;;;5072497;28;20040;-68
2021/12/23 01:28:21;;;;;;;3.28;3.08;;;-2.90;99.90;;;;;;5072491;28;20591;-68
2021/12/23 01:30:48;;;;;;;0.95;0.90;;;-3.00;99.90;;;;;;5071080;28;20400;-68
2021/12/23 01:33:14;;;;;;;3.95;3.70;;;-3.10;99.90;;;;;;5072476;28;20043;-67
2021/12/23 01:35:41;;;;;;;1.90;1.80;;;-3.10;99.90;;;;;;5071193;28;20036;-68
2021/12/23 01:38:08;;;;;;;4.25;2.42;;;-3.00;99.90;;;;;;5071411;28;20032;-67
2021/12/23 01:40:35;;;;;;;0.73;0.73;;;-3.00;99.90;;;;;;5072018;28;20570;-68
2021/12/23 01:43:03;;;;;;;4.25;1.67;;;-3.00;99.90;;;;;;5070913;28;20032;-68
2021/12/23 01:45:32;;;;;;;1.60;1.50;;;-2.90;99.90;;;;;;5071803;28;20032;-68
2021/12/23 01:47:58;;;;;;;3.25;3.05;;;-2.90;99.90;;;;;;5087764;28;20035;-68
2021/12/23 01:50:27;;;;;;;0.50;0.50;;;-2.90;99.90;;;;;;5071078;28;20473;-68
2021/12/23 01:52:58;;;;;;;0.65;0.65;;;-2.90;99.90;;;;;;5070697;28;20047;-68
2021/12/23 01:55:25;;;;;;;0.22;0.22;;;-2.90;99.90;;;;;;5053996;28;20032;-68
2021/12/23 01:57:51;;;;;;;1.30;1.20;;;-2.90;99.90;;;;;;5070588;28;20416;-68
2021/12/23 02:00:23;;;;;;;2.42;2.28;;;-2.80;99.90;;;;;;5072120;28;20385;-68
2021/12/23 02:02:51;;;;;;;0.10;0.10;;;-2.80;99.90;;;;;;5070700;28;20039;-68
2021/12/23 02:05:17;;;;;;;1.10;1.00;;;-2.80;99.90;;;;;;5070646;28;20036;-68
2021/12/23 02:07:43;;;;;;;1.35;0.70;;;-2.80;99.90;;;;;;5087393;28;20043;-68
2021/12/23 02:10:10;;;;;;;2.30;1.65;;;-2.80;99.90;;;;;;5071913;28;20115;-68
2021/12/23 02:12:36;;;;;;;0.10;0.10;;;-2.80;99.90;;;;;;5071930;28;20074;-67
2021/12/23 02:15:04;;;;;;;0.40;0.40;;;-2.80;99.90;;;;;;5070582;28;20037;-69
2021/12/23 02:17:35;;;;;;;6.72;6.10;;;-2.80;99.90;;;;;;5070306;28;20039;-69
2021/12/23 02:20:01;;;;;;;1.38;1.23;;;-2.80;99.90;;;;;;5071722;28;20108;-68
2021/12/23 02:22:27;;;;;;;1.95;1.20;;;-2.70;99.90;;;;;;5071357;28;20131;-69
2021/12/23 02:24:53;;;;;;;0.20;0.20;;;-2.70;99.90;;;;;;5071958;28;20401;-68
2021/12/23 02:27:18;;;;;;;2.63;1.10;;;-2.60;99.90;;;;;;5071875;28;20040;-68
2021/12/23 02:29:44;;;;;;;0.20;0.20;;;-2.50;99.90;;;;;;5071516;28;20090;-68
2021/12/23 02:32:10;;;;;;;0.28;0.28;;;-2.40;99.90;;;;;;5071489;28;20032;-68
2021/12/23 02:34:36;;;;;;;0.20;0.20;;;-2.40;99.90;;;;;;5071665;28;20028;-68
2021/12/23 02:37:02;;;;;;;1.27;1.20;;;-2.40;99.90;;;;;;5070229;28;20036;-68
2021/12/23 02:39:29;;;;;;;12.48;6.38;;;-2.40;99.90;;;;;;5071233;28;20024;-68
2021/12/23 02:41:55;;;;;;;2.95;2.75;;;-2.40;99.90;;;;;;5071667;28;20041;-68
2021/12/23 02:44:21;;;;;;;8.20;3.58;;;-2.30;99.90;;;;;;5070008;28;20586;-68
2021/12/23 02:46:48;;;;;;;0.30;0.30;;;-2.30;99.90;;;;;;5071063;28;20409;-68
2021/12/23 02:49:15;;;;;;;0.30;0.30;;;-2.40;99.90;;;;;;5070406;28;20035;-68
2021/12/23 02:51:42;;;;;;;0.40;0.40;;;-2.40;99.90;;;;;;5071488;28;20559;-68
2021/12/23 02:54:08;;;;;;;0.13;0.13;;;-2.40;99.90;;;;;;5070147;28;20510;-68
2021/12/23 02:56:35;;;;;;;0.20;0.20;;;-2.40;99.90;;;;;;5053148;28;20046;-68
2021/12/23 02:59:01;;;;;;;0.45;0.45;;;-2.40;99.90;;;;;;5071735;28;20470;-68
2021/12/23 03:01:27;;;;;;;0.30;0.30;;;-2.40;99.90;;;;;;5071435;28;20082;-69
2021/12/23 03:03:54;;;;;;;0.50;0.50;;;-2.40;99.90;;;;;;5071085;28;20040;-69
2021/12/23 03:06:22;;;;;;;0.30;0.30;;;-2.40;99.90;;;;;;5070993;28;20526;-69
2021/12/23 03:08:59;;;;;;;3.20;3.00;;;-2.40;99.90;;;;;;5074973;28;20063;-69
2021/12/23 03:11:27;;;;;;;0.68;0.68;;;-2.50;99.90;;;;;;5075118;28;20453;-69
2021/12/23 03:13:54;;;;;;;0.30;0.30;;;-2.40;99.90;;;;;;5074974;28;20060;-69
2021/12/23 03:16:24;;;;;;;0.40;0.40;;;-2.40;99.90;;;;;;5073629;28;20056;-69
2021/12/23 03:18:50;;;;;;;0.63;0.63;;;-2.40;99.90;;;;;;5075115;28;20043;-69
2021/12/23 03:21:16;;;;;;;0.30;0.30;;;-2.50;99.90;;;;;;5075077;28;20036;-69
2021/12/23 03:23:43;;;;;;;0.13;0.13;;;-2.50;99.90;;;;;;5075049;28;20029;-69
2021/12/23 03:26:09;;;;;;;0.15;0.15;;;-2.50;99.90;;;;;;5073643;28;20123;-69
2021/12/23 03:28:36;;;;;;;4.20;3.40;;;-2.40;99.90;;;;;;5074805;28;20111;-69
2021/12/23 03:31:03;;;;;;;0.80;0.77;;;-2.50;99.90;;;;;;5073677;28;20033;-69
2021/12/23 03:33:29;;;;;;;0.20;0.20;;;-2.50;99.90;;;;;;5073298;28;20029;-69
2021/12/23 03:35:55;;;;;;;0.68;0.68;;;-2.40;99.90;;;;;;5073372;28;20031;-69
2021/12/23 03:38:24;;;;;;;3.50;1.75;;;-2.40;99.90;;;;;;5074509;28;20028;-69
2021/12/23 03:40:50;;;;;;;0.15;0.15;;;-2.40;99.90;;;;;;5074323;28;20037;-69
2021/12/23 03:43:17;;;;;;;0.40;0.40;;;-2.40;99.90;;;;;;5073537;28;20411;-68
2021/12/23 03:45:47;;;;;;;7.35;3.08;;;-2.40;99.90;;;;;;5072995;28;20033;-68
2021/12/23 03:48:15;;;;;;;1.85;1.75;;;-2.40;99.90;;;;;;5073529;28;20035;-68
2021/12/23 03:50:42;;;;;;;0.43;0.43;;;-2.40;99.90;;;;;;5074486;28;20036;-68
2021/12/23 03:53:08;;;;;;;0.95;0.93;;;-2.40;99.90;;;;;;5072950;28;20037;-68
2021/12/23 03:55:34;;;;;;;1.75;1.65;;;-2.40;99.90;;;;;;5074635;28;20047;-68
2021/12/23 03:58:00;;;;;;;0.32;0.32;;;-2.40;99.90;;;;;;5074212;28;20112;-68
2021/12/23 04:00:27;;;;;;;1.38;1.27;;;-2.40;99.90;;;;;;5072831;28;20039;-68
2021/12/23 04:02:54;;;;;;;0.32;0.32;;;-2.30;99.90;;;;;;5072635;28;20028;-68
2021/12/23 04:05:21;;;;;;;4.43;3.35;;;-2.30;99.90;;;;;;5072863;28;20039;-68
2021/12/23 04:07:47;;;;;;;1.38;1.00;;;-2.20;99.90;;;;;;5074221;28;20099;-68
2021/12/23 04:10:18;;;;;;;0.20;0.20;;;-2.20;99.90;;;;;;5072811;28;20150;-68
2021/12/23 04:12:45;;;;;;;;;;;-2.20;99.90;;;;;;5072969;28;20049;-68
2021/12/23 04:15:11;;;;;;;0.30;0.30;;;-2.20;99.90;;;;;;5073903;28;20021;-69
2021/12/23 04:17:37;;;;;;;2.53;2.13;;;-2.20;99.90;;;;;;5072532;28;20033;-69
2021/12/23 04:20:19;;;;;;;0.52;0.52;;;-2.20;99.90;;;;;;5074234;28;20035;-68
2021/12/23 04:22:47;;;;;;;1.38;1.27;;;-2.20;99.90;;;;;;5073746;28;20634;-69
2021/12/23 04:25:15;;;;;;;1.75;1.27;;;-2.10;99.90;;;;;;5074024;28;20029;-69
2021/12/23 04:27:43;;;;;;;0.82;0.82;;;-2.00;99.90;;;;;;5073569;28;20056;-68
2021/12/23 04:30:11;;;;;;;0.20;0.20;;;-2.00;99.90;;;;;;5072347;28;20032;-68
2021/12/23 04:32:37;;;;;;;0.98;0.98;;;-1.90;99.90;;;;;;5072247;28;20116;-68
2021/12/23 04:35:04;;;;;;;0.63;0.63;;;-1.90;99.90;;;;;;5073822;28;20377;-69
2021/12/23 04:37:30;;;;;;;0.10;0.10;;;-1.90;99.90;;;;;;5073756;28;20561;-69
2021/12/23 04:39:56;;;;;;;0.10;0.10;;;-1.80;99.90;;;;;;5071896;28;20064;-69
2021/12/23 04:42:22;;;;;;;1.65;1.55;;;-1.80;99.90;;;;;;5072145;28;20028;-69
2021/12/23 04:44:48;;;;;;;0.63;0.63;;;-1.80;99.90;;;;;;5071984;28;20516;-68
2021/12/23 04:47:13;;;;;;;0.32;0.32;;;-1.70;99.90;;;;;;5072981;28;20048;-69
2021/12/23 04:49:39;;;;;;;0.20;0.20;;;-1.80;99.90;;;;;;5071770;28;20035;-68
2021/12/23 04:52:06;;;;;;;0.30;0.30;;;-1.70;99.90;;;;;;5073121;28;20041;-68
2021/12/23 04:54:32;;;;;;;0.45;0.45;;;-1.70;99.90;;;;;;5073432;28;20527;-69
2021/12/23 04:56:58;;;;;;;0.20;0.20;;;-1.60;99.90;;;;;;5072941;28;20037;-68
2021/12/23 04:59:23;;;;;;;0.32;0.32;;;-1.50;99.90;;;;;;5071567;28;20037;-68
2021/12/23 05:01:50;;;;;;;4.10;1.67;;;-1.50;99.90;;;;;;5060118;28;20059;-70
2021/12/23 05:04:15;;;;;;;1.88;1.75;;;-1.50;99.90;;;;;;5073218;28;20393;-64
2021/12/23 05:06:41;;;;;;;7.53;3.47;;;-1.50;99.90;;;;;;5056017;28;20033;-66
2021/12/23 05:09:07;;;;;;;0.17;0.17;;;-1.50;99.90;;;;;;5052316;28;20029;-66
2021/12/23 05:11:33;;;;;;;0.82;0.82;;;-1.40;99.90;;;;;;5072674;28;20029;-65
2021/12/23 05:13:59;;;;;;;0.93;0.93;;;-1.40;99.90;;;;;;5069588;28;20119;-67
2021/12/23 05:16:25;;;;;;;2.40;2.25;;;-1.50;99.90;;;;;;5052415;28;20029;-68
2021/12/23 05:18:51;;;;;;;0.43;0.43;;;-1.40;99.90;;;;;;5052509;28;20428;-66
2021/12/23 05:21:17;;;;;;;3.42;2.28;;;-1.40;99.90;;;;;;5052656;28;20033;-64
2021/12/23 05:23:42;;;;;;;0.75;0.75;;;-1.40;99.90;;;;;;5052724;28;20039;-68
2021/12/23 05:26:08;;;;;;;0.10;0.10;;;-1.50;99.90;;;;;;5052582;28;20033;-68
2021/12/23 05:28:35;;;;;;;0.80;0.80;;;-1.50;99.90;;;;;;5034270;28;20055;-69
2021/12/23 05:31:02;;;;;;;5.47;1.65;;;-1.40;99.90;;;;;;5074422;28;20484;-67
2021/12/23 05:33:28;;;;;;;0.45;0.45;;;-1.40;99.90;;;;;;5092700;28;20032;-72
2021/12/23 05:35:55;;;;;;;1.38;1.35;;;-1.40;99.90;;;;;;5091196;28;20645;-70
2021/12/23 05:38:22;;;;;;;0.45;0.45;;;-1.50;99.90;;;;;;5092842;28;20028;-69
2021/12/23 05:40:48;;;;;;;0.30;0.30;;;-1.50;99.90;;;;;;5092571;28;20505;-66
2021/12/23 05:43:14;;;;;;;0.35;0.35;;;-1.50;99.90;;;;;;5092637;28;20040;-66
2021/12/23 05:45:40;;;;;;;0.20;0.20;;;-1.60;99.90;;;;;;5091915;28;20492;-66
2021/12/23 05:48:06;;;;;;;0.57;0.57;;;-1.50;99.90;;;;;;5092659;28;20682;-67
2021/12/23 05:50:33;;;;;;;0.20;0.20;;;-1.60;99.90;;;;;;5091483;28;20103;-66
2021/12/23 05:52:59;;;;;;;0.25;0.25;;;-1.50;99.90;;;;;;5090852;28;20039;-67
2021/12/23 05:55:25;;;;;;;0.50;0.50;;;-1.50;99.90;;;;;;5092134;28;20036;-67
2021/12/23 05:57:52;;;;;;;0.20;0.20;;;-1.60;99.90;;;;;;5092049;28;20115;-66
2021/12/23 06:00:30;;;;;;;6.22;2.15;;;-1.60;99.90;;;;;;5085137;28;20044;-66
2021/12/23 06:02:58;;;;;;;7.55;4.50;;;-1.50;99.90;;;;;;5071929;28;20025;-65
2021/12/23 06:05:25;;;;;;;5.40;2.75;;;-1.40;99.90;;;;;;5070878;28;20132;-67
2021/12/23 06:07:51;;;;;;;0.35;0.35;;;-1.50;99.90;;;;;;5071736;28;20034;-65
2021/12/23 06:10:17;;;;;;;2.00;1.90;;;-1.60;99.90;;;;;;5070786;28;20033;-68
2021/12/23 06:12:44;;;;;;;0.30;0.30;;;-1.50;99.90;;;;;;5070360;28;20509;-67
2021/12/23 06:15:11;;;;;;;1.48;1.45;;;-1.60;99.90;;;;;;5071954;28;20185;-67
2021/12/23 06:17:37;;;;;;;5.43;1.30;;;-1.60;99.90;;;;;;5071379;28;20035;-67
2021/12/23 06:20:06;;;;;;;2.67;2.47;;;-1.60;99.90;;;;;;5070275;28;20362;-67
2021/12/23 06:22:36;;;;;;;5.63;3.10;;;-1.70;99.90;;;;;;5071849;28;20028;-67
2021/12/23 06:25:05;;;;;;;0.30;0.30;;;-1.70;99.90;;;;;;5070397;28;20138;-67
2021/12/23 06:27:31;;;;;;;0.10;0.10;;;-1.80;99.90;;;;;;5071472;28;20126;-65
2021/12/23 06:29:57;;;;;;;0.43;0.43;;;-1.80;99.90;;;;;;5074538;28;20508;-66
2021/12/23 06:32:23;;;;;;;1.45;1.10;;;-1.90;99.90;;;;;;5090415;28;20157;-67
2021/12/23 06:34:49;;;;;;;3.33;1.75;;;-1.90;99.90;;;;;;5090577;28;20028;-65
2021/12/23 06:37:15;;;;;;;1.45;0.63;;;-1.90;99.90;;;;;;5090577;28;20050;-64
2021/12/23 06:39:41;;;;;;;0.75;0.75;;;-1.90;99.90;;;;;;5091902;28;20192;-64
2021/12/23 06:42:08;;;;;;;0.43;0.43;;;-1.90;99.90;;;;;;5092768;28;20047;-66
2021/12/23 06:44:34;;;;;;;0.47;0.47;;;-1.90;99.90;;;;;;5095793;28;20036;-65
2021/12/23 06:46:59;;;;;;;0.50;0.50;;;-1.90;99.90;;;;;;5095467;28;20048;-66
2021/12/23 06:49:26;;;;;;;0.55;0.35;;;-2.00;99.90;;;;;;5092715;28;20098;-65
2021/12/23 06:51:53;;;;;;;2.30;2.08;;;-2.00;99.90;;;;;;5074027;28;20060;-65
2021/12/23 06:54:19;;;;;;;5.85;2.17;;;-2.00;99.90;;;;;;5075432;28;20056;-66
2021/12/23 06:56:46;;;;;;;0.10;0.10;;;-1.90;99.90;;;;;;5075160;28;20036;-66
2021/12/23 06:59:15;;;;;;;0.20;0.20;;;-2.00;99.90;;;;;;5075239;28;20416;-65
2021/12/23 07:01:42;;;;;;;0.50;0.50;;;-1.90;99.90;;;;;;5073871;28;20481;-66
2021/12/23 07:04:14;;;;;;;0.38;0.38;;;-1.90;99.90;;;;;;5075026;28;20060;-67
2021/12/23 07:06:47;;;;;;;1.00;1.00;;;-1.90;99.90;;;;;;5075263;28;20036;-67
2021/12/23 07:09:15;;;;;;;0.68;0.68;;;-1.90;99.90;;;;;;5072359;28;20028;-66
2021/12/23 07:11:41;;;;;;;7.43;1.20;;;-1.90;99.90;;;;;;5075212;28;20029;-65
2021/12/23 07:14:07;;;;;;;0.68;0.68;;;-1.90;99.90;;;;;;5073527;28;20436;-65
2021/12/23 07:16:33;;;;;;;3.28;3.00;;;-1.80;99.90;;;;;;5074741;28;20028;-65
2021/12/23 07:18:59;;;;;;;0.20;0.20;;;-1.80;99.90;;;;;;5057265;28;20032;-66
2021/12/23 07:21:25;;;;;;;0.68;0.68;;;-1.80;99.90;;;;;;5073436;28;20476;-66
2021/12/23 07:23:50;;;;;;;0.65;0.65;;;-1.70;99.90;;;;;;5074914;28;20025;-66
2021/12/23 07:26:17;;;;;;;2.28;2.08;;;-1.80;99.90;;;;;;5069479;28;20036;-66
2021/12/23 07:28:43;;;;;;;7.40;6.40;;;-1.70;99.90;;;;;;5065070;28;20104;-66
2021/12/23 07:31:09;;;;;;;0.70;0.70;;;-1.70;99.90;;;;;;5063269;28;20496;-66
2021/12/23 07:33:35;;;;;;;2.97;1.23;;;-1.60;99.90;;;;;;5067055;28;20024;-66
2021/12/23 07:36:04;;;;;;;0.25;0.25;;;-1.60;99.90;;;;;;5073345;28;20032;-68
2021/12/23 07:38:33;;;;;;;1.65;1.55;;;-1.60;99.90;;;;;;5073615;28;20490;-68
2021/12/23 07:40:59;;;;;;;0.55;0.55;;;-1.70;99.90;;;;;;5074551;28;20031;-69
2021/12/23 07:46:03;;;;;;;1.25;1.23;;;-1.70;99.90;;;;;;5074096;28;20056;-75
2021/12/23 07:48:33;;;;;;;0.40;0.40;;;-1.70;99.90;;;;;;5073664;28;20025;-68
2021/12/23 07:51:00;;;;;;;0.10;0.10;;;-1.70;99.90;;;;;;5073205;28;20384;-69
2021/12/23 07:53:26;;;;;;;0.10;0.10;;;-1.60;99.90;;;;;;5073860;28;20028;-69
2021/12/23 07:55:52;;;;;;;0.10;0.10;;;-1.70;99.90;;;;;;5073007;28;20036;-66
2021/12/23 07:58:20;;;;;;;8.68;4.50;;;-1.60;99.90;;;;;;5074321;28;20051;-65
2021/12/23 08:00:46;;;;;;;0.10;0.10;;;-1.60;99.90;;;;;;5074157;28;20029;-67
2021/12/23 08:03:12;;;;;;;0.20;0.20;;;-1.50;99.90;;;;;;5074395;28;20031;-67
2021/12/23 08:05:38;;;;;;;0.35;0.35;;;-1.50;99.90;;;;;;5064717;28;20040;-67
2021/12/23 08:08:05;;;;;;;0.90;0.90;;;-1.50;99.90;;;;;;5053914;28;20048;-67
2021/12/23 08:10:31;;;;;;;0.60;0.60;;;-1.50;99.90;;;;;;5052725;28;20033;-67
2021/12/23 08:12:57;;;;;;;2.45;1.75;;;-1.50;99.90;;;;;;5054106;28;20086;-65
2021/12/23 08:15:23;;;;;;;1.95;1.55;;;-1.50;99.90;;;;;;5052903;28;20029;-65
2021/12/23 08:17:49;;;;;;;0.65;0.65;;;-1.40;99.90;;;;;;5053813;28;20110;-66
2021/12/23 08:20:16;;;;;;;0.30;0.30;;;-1.40;99.90;;;;;;5053437;28;20381;-62
2021/12/23 08:22:43;;;;;;;1.67;1.58;;;-1.30;99.90;;;;;;5054072;28;20454;-67
2021/12/23 08:25:10;;;;;;;2.42;2.00;;;-0.90;99.90;;;;;;5052331;28;20116;-67
2021/12/23 08:27:37;;;;;;;1.98;1.67;;;-1.00;99.90;;;;;;5069154;28;20033;-67
2021/12/23 08:30:09;;;;;;;0.68;0.68;;;-1.00;99.90;;;;;;5052748;28;20048;-67
2021/12/23 08:32:35;;;;;;;0.65;0.65;;;-1.10;99.90;;;;;;5053268;28;20124;-67
2021/12/23 08:35:01;;;;;;;9.10;4.40;;;-1.10;99.90;;;;;;5052153;28;20039;-67
2021/12/23 08:37:27;;;;;;;0.90;0.90;;;-1.10;99.90;;;;;;5053790;28;20052;-67
2021/12/23 08:39:53;;;;;;;1.20;1.15;;;-1.20;99.90;;;;;;5068722;28;20029;-67
2021/12/23 08:42:20;;;;;;;0.20;0.20;;;-1.10;99.90;;;;;;5052352;28;20043;-67
2021/12/23 08:44:46;;;;;;;2.65;2.47;;;-1.10;99.90;;;;;;5052448;28;20029;-67
2021/12/23 08:47:14;;;;;;;1.30;1.27;;;-1.10;99.90;;;;;;5051696;28;20497;-67
2021/12/23 08:49:45;;;;;;;0.20;0.20;;;-1.10;99.90;;;;;;5054598;28;20439;-67
2021/12/23 08:52:12;;;;;;;0.85;0.85;;;-1.00;99.90;;;;;;5064981;28;20072;-67
2021/12/23 08:54:40;;;;;;;0.20;0.20;;;-1.00;99.90;;;;;;5073454;28;20056;-67
2021/12/23 08:57:06;;;;;;;2.67;2.47;;;-1.00;99.90;;;;;;5071656;28;20032;-67
2021/12/23 08:59:33;;;;;;;0.47;0.47;;;-1.00;99.90;;;;;;5072880;28;20028;-68
2021/12/23 09:02:00;;;;;;;0.22;0.22;;;-1.00;99.90;;;;;;5069669;28;20174;-68
2021/12/23 09:04:28;;;;;;;0.20;0.20;;;-1.00;99.90;;;;;;5038846;28;20057;-68
2021/12/23 09:06:54;;;;;;;1.42;1.38;;;-1.00;99.90;;;;;;5071867;28;20093;-68
2021/12/23 09:09:21;;;;;;;0.95;0.95;;;-1.00;99.90;;;;;;5049388;28;20025;-67
2021/12/23 09:11:47;;;;;;;0.10;0.10;;;-1.00;99.90;;;;;;5069959;28;20495;-67
2021/12/23 09:14:13;;;;;;;0.13;0.13;;;-1.00;99.90;;;;;;5069237;28;20056;-67
2021/12/23 09:16:39;;;;;;;1.55;1.45;;;-1.00;99.90;;;;;;5072649;28;20033;-67
2021/12/23 09:19:07;;;;;;;0.10;0.10;;;-0.90;99.90;;;;;;5071367;28;20036;-67
2021/12/23 09:21:33;;;;;;;2.17;1.98;;;-0.90;99.90;;;;;;5078247;28;20137;-68
2021/12/23 09:24:00;;;;;;;0.10;0.10;;;-0.80;99.90;;;;;;5092816;28;20059;-67
2021/12/23 09:26:27;;;;;;;0.50;0.50;;;-0.80;99.90;;;;;;5091573;28;20046;-68
2021/12/23 09:34:08;;;;;;;2.03;1.92;;;-0.80;99.90;;;;;;5092607;28;20479;-67
2021/12/23 09:36:35;;;;;;;1.48;0.82;;;-0.70;99.90;;;;;;5091444;28;20126;-66
2021/12/23 09:39:05;;;;;;;0.10;0.10;;;-0.70;99.90;;;;;;5091434;28;20043;-68
2021/12/23 09:41:32;;;;;;;0.13;0.13;;;-0.70;99.90;;;;;;5092450;28;20065;-66
2021/12/23 09:44:00;;;;;;;0.75;0.75;;;-0.70;99.90;;;;;;5074056;28;20082;-67
2021/12/23 09:46:29;;;;;;;0.17;0.17;;;-0.70;99.90;;;;;;5091272;28;20130;-69
2021/12/23 09:48:55;;;;;;;12.57;6.20;;;-0.60;99.90;;;;;;5071510;28;20036;-68
2021/12/23 09:51:24;;;;;;;0.10;0.10;;;-0.50;99.90;;;;;;5070751;28;20025;-66
2021/12/23 09:53:59;;;;;;;0.20;0.20;;;-0.60;99.90;;;;;;5072467;28;20055;-68
2021/12/23 09:56:28;;;;;;;0.25;0.25;;;-0.60;99.90;;;;;;5072142;28;20037;-68
2021/12/23 09:58:58;;;;;;;0.25;0.25;;;-0.50;99.90;;;;;;5070759;28;20044;-68
2021/12/23 10:01:30;;;;;;;1.58;1.48;;;-0.50;99.90;;;;;;5072119;28;20090;-68
2021/12/23 10:03:57;;;;;;;1.10;1.02;;;-0.40;99.90;;;;;;5071497;28;20126;-69
2021/12/23 10:06:26;;;;;;;1.67;1.15;;;-0.40;99.90;;;;;;5070634;28;20024;-67
2021/12/23 10:08:55;;;;;;;0.22;0.22;;;-0.30;99.90;;;;;;5071839;28;20087;-68
2021/12/23 10:38:29;;;;;;;0.20;0.20;;;0.20;99.90;;;;;;5065755;28;20428;-68
2021/12/23 10:41:04;;;;;;;0.40;0.40;;;0.20;99.90;;;;;;5051582;28;20124;-68
2021/12/23 10:43:35;;;;;;;0.60;0.50;;;0.30;99.90;;;;;;5051856;28;20033;-68
2021/12/23 10:46:13;;;;;;;2.03;1.90;;;0.30;99.90;;;;;;5033473;28;20131;-68
2021/12/23 10:49:23;;;;;;;0.20;0.20;;;0.40;99.90;;;;;;5050596;28;20051;-68
2021/12/23 10:52:03;;;;;;;0.10;0.10;;;0.30;99.90;;;;;;5051177;28;20025;-68
2021/12/23 11:00:27;;;;;;;0.85;0.85;;;0.60;99.90;;;;;;5071072;28;20410;-67
2021/12/23 11:03:25;;;;;;;3.60;3.40;;;0.60;99.90;;;;;;5071323;28;20059;-69
2021/12/23 11:06:19;;;;;;;1.25;1.23;;;0.60;99.90;;;;;;5071141;28;20039;-68
2021/12/23 11:08:55;;;;;;;1.42;1.33;;;0.60;99.90;;;;;;5067718;28;20033;-67
2021/12/23 11:41:59;;;;;;;0.10;0.10;;;1.40;99.90;;;;;;5054543;28;20480;-67
2021/12/23 11:44:25;;;;;;;3.63;2.75;;;1.50;99.90;;;;;;5053273;28;20028;-67
2021/12/23 11:46:55;;;;;;;2.25;2.05;;;1.50;99.90;;;;;;5053200;28;20056;-68
2021/12/23 11:49:22;;;;;;;2.00;1.65;;;1.50;99.90;;;;;;5048083;28;20029;-67
2021/12/23 11:54:22;;;;;;;1.70;1.33;;;1.50;99.90;;;;;;5054447;28;20025;-68
2021/12/23 11:56:53;;;;;;;2.42;1.50;;;1.50;99.90;;;;;;5069802;28;20029;-68
2021/12/23 11:59:20;;;;;;;1.27;1.25;;;1.50;99.90;;;;;;5068469;28;20128;-67
2021/12/23 12:01:53;;;;;;;1.27;1.17;;;1.60;99.90;;;;;;5063233;28;20039;-67
2021/12/23 12:04:31;;;;;;;0.22;0.22;;;1.60;99.90;;;;;;5047791;28;20171;-68
2021/12/23 12:07:01;;;;;;;0.70;0.70;;;1.60;99.90;;;;;;5062800;28;20476;-65
2021/12/23 12:09:31;;;;;;;0.43;0.43;;;1.60;99.90;;;;;;5061987;28;20473;-66
2021/12/23 12:12:06;;;;;;;1.23;1.13;;;1.60;99.90;;;;;;5052874;28;20036;-66
2021/12/23 12:14:38;;;;;;;0.28;0.28;;;1.70;99.90;;;;;;5052771;28;20102;-67
2021/12/23 12:17:26;;;;;;;0.77;0.77;;;1.70;99.90;;;;;;5053512;28;20033;-67
2021/12/23 12:20:24;;;;;;;1.48;1.38;;;1.80;99.90;;;;;;5053860;28;20124;-68
2021/12/23 12:23:11;;;;;;;2.17;2.08;;;1.80;99.90;;;;;;5053944;28;20401;-67
2021/12/23 12:25:47;;;;;;;0.65;0.65;;;1.80;99.90;;;;;;5052875;28;20488;-67
2021/12/23 12:28:28;;;;;;;1.45;1.38;;;1.80;99.90;;;;;;5053937;28;20091;-68
2021/12/23 12:31:23;;;;;;;2.10;1.93;;;1.80;99.90;;;;;;5052839;28;20043;-68
2021/12/23 12:34:05;;;;;;;0.50;0.50;;;1.80;99.90;;;;;;5052670;28;20509;-67
2021/12/23 12:36:41;;;;;;;3.00;1.98;;;1.80;99.90;;;;;;5060601;28;20031;-66
2021/12/23 12:39:10;;;;;;;0.90;0.52;;;1.90;99.90;;;;;;5050128;28;20098;-66
2021/12/23 12:41:38;;;;;;;0.57;0.57;;;1.90;99.90;;;;;;5067503;28;20054;-67
2021/12/23 12:44:24;;;;;;;1.17;0.77;;;1.90;99.90;;;;;;5072996;28;20032;-68
2021/12/23 12:47:10;;;;;;;0.77;0.77;;;1.90;99.90;;;;;;5031933;28;20572;-66
2021/12/23 12:49:40;;;;;;;1.45;1.17;;;2.00;99.90;;;;;;5066061;28;20037;-68
2021/12/23 12:52:30;;;;;;;0.33;0.33;;;2.00;99.90;;;;;;5069461;28;20047;-68
2021/12/23 12:55:09;;;;;;;1.30;0.80;;;2.10;99.90;;;;;;5072243;28;20036;-68
2021/12/23 12:57:57;;;;;;;0.68;0.68;;;2.10;99.90;;;;;;5073190;28;20082;-68
2021/12/23 13:00:39;;;;;;;2.83;2.47;;;2.20;99.90;;;;;;5071573;28;20070;-68
2021/12/23 13:03:07;;;;;;;2.22;1.65;;;2.20;99.90;;;;;;5055619;28;20455;-68
2021/12/23 13:05:53;;;;;;;0.40;0.40;;;2.20;99.90;;;;;;5067734;28;20033;-68
2021/12/23 13:08:34;;;;;;;0.30;0.30;;;2.30;99.90;;;;;;5035865;28;20033;-68
2021/12/23 13:11:12;;;;;;;0.98;0.98;;;2.40;99.90;;;;;;5053160;28;20029;-68
2021/12/23 13:13:43;;;;;;;0.85;0.85;;;2.50;99.90;;;;;;5052868;28;20035;-70
2021/12/23 13:16:17;;;;;;;1.35;1.25;;;2.50;99.90;;;;;;5066527;28;20040;-68
2021/12/23 13:18:44;;;;;;;0.40;0.40;;;2.50;99.90;;;;;;5067379;28;20100;-67
2021/12/23 13:21:11;;;;;;;0.45;0.45;;;2.60;99.90;;;;;;5075307;28;20056;-68
2021/12/23 13:23:45;;;;;;;2.42;1.45;;;2.60;99.90;;;;;;5092912;28;20035;-69
2021/12/23 13:26:18;;;;;;;1.48;1.38;;;2.60;99.90;;;;;;5092389;28;20032;-68
2021/12/23 13:28:54;;;;;;;0.10;0.10;;;2.60;99.90;;;;;;5092863;28;20093;-69
2021/12/23 13:31:29;;;;;;;1.35;1.27;;;2.60;99.90;;;;;;5081263;28;20029;-68
2021/12/23 13:34:00;;;;;;;0.77;0.77;;;2.70;99.90;;;;;;5054813;28;20036;-70
2021/12/23 13:36:28;;;;;;;0.25;0.25;;;2.70;99.90;;;;;;5054903;28;20056;-68
2021/12/23 13:39:07;;;;;;;4.43;3.78;;;2.80;99.90;;;;;;5070860;28;20115;-69
2021/12/23 13:41:42;;;;;;;8.18;1.98;;;2.80;99.90;;;;;;5070800;28;20043;-69
2021/12/23 13:44:14;;;;;;;0.30;0.30;;;2.80;99.90;;;;;;5069841;28;20055;-69
2021/12/23 13:46:55;;;;;;;0.68;0.68;;;2.80;99.90;;;;;;5070090;28;20109;-68
2021/12/23 13:49:50;;;;;;;0.28;0.28;;;2.80;99.90;;;;;;5055289;28;20385;-67
2021/12/23 13:52:44;;;;;;;0.10;0.10;;;2.80;99.90;;;;;;5072004;28;20032;-67
2021/12/23 13:55:27;;;;;;;0.52;0.52;;;2.90;99.90;;;;;;5072058;28;20180;-67
2021/12/23 13:57:56;;;;;;;0.20;0.20;;;2.90;99.90;;;;;;5071627;28;20584;-68
2021/12/23 14:00:38;;;;;;;1.00;0.95;;;2.90;99.90;;;;;;5053828;28;20112;-68
2021/12/23 14:03:15;;;;;;;2.70;1.02;;;3.00;99.90;;;;;;5070629;28;20032;-68
2021/12/23 14:05:42;;;;;;;5.43;1.75;;;3.00;99.90;;;;;;5070699;28;20115;-68
2021/12/23 14:08:19;;;;;;;0.95;0.95;;;3.00;99.90;;;;;;5070270;28;20028;-68
2021/12/23 14:10:47;;;;;;;0.55;0.55;;;3.00;99.90;;;;;;5065883;28;20091;-67
2021/12/23 14:13:19;;;;;;;0.20;0.20;;;3.10;99.90;;;;;;5051531;28;20457;-68
2021/12/23 14:15:50;;;;;;;0.93;0.90;;;3.10;99.90;;;;;;5050204;28;20029;-68
2021/12/23 14:18:33;;;;;;;3.03;2.35;;;3.10;99.90;;;;;;5050325;28;20169;-68
2021/12/23 14:23:51;;;;;;;1.17;1.08;;;3.10;99.90;;;;;;5050691;28;20124;-69
2021/12/23 14:26:22;;;;;;;1.40;1.30;;;3.10;99.90;;;;;;5065580;28;20345;-68